Time;durP1;ratioP1;P1;durP2;ratioP2;P2;SDS_P1;SDS_P2;PMS_P1;PMS_P2;Temp;Humidity;BMP_temperature;BMP_pressure;BME280_temperature;BME280_humidity;BME280_pressure;Samples;Min_cycle;Max_cycle;Signal;HPM_P1;HPM_P2
2021/01/13 00:00:23;;;;;;;9.33;4.00;;;;;;;-1.23;100.00;99932.56;5010777;28;20049;-71
2021/01/13 00:02:49;;;;;;;10.63;3.70;;;;;;;-1.25;100.00;99933.41;5029297;28;20033;-72
2021/01/13 00:05:16;;;;;;;12.10;4.63;;;;;;;-1.22;100.00;99936.91;4996218;28;20095;-71
2021/01/13 00:07:43;;;;;;;8.10;3.73;;;;;;;-1.19;100.00;99933.47;5025398;28;20510;-71
2021/01/13 00:10:10;;;;;;;6.97;4.37;;;;;;;-1.15;100.00;99933.56;5026775;28;20033;-72
2021/01/13 00:12:37;;;;;;;11.03;4.50;;;;;;;-1.13;100.00;99926.66;5009204;28;20041;-72
2021/01/13 00:15:07;;;;;;;7.57;3.60;;;;;;;-1.11;100.00;99925.81;5010998;28;20091;-71
2021/01/13 00:17:34;;;;;;;8.33;4.27;;;;;;;-1.17;100.00;99932.66;5008346;28;20538;-71
2021/01/13 00:20:01;;;;;;;9.70;3.53;;;;;;;-1.18;100.00;99928.34;5012642;28;20157;-72
2021/01/13 00:22:27;;;;;;;8.47;3.87;;;;;;;-1.21;100.00;99924.81;5009476;28;20092;-71
2021/01/13 00:24:53;;;;;;;8.03;3.77;;;;;;;-1.21;100.00;99923.09;5025066;28;20552;-72
2021/01/13 00:27:22;;;;;;;11.70;3.60;;;;;;;-1.26;100.00;99927.34;5026478;28;20057;-72
2021/01/13 00:29:52;;;;;;;10.07;3.40;;;;;;;-1.24;100.00;99929.97;4994196;28;20457;-71
2021/01/13 00:32:18;;;;;;;7.33;3.97;;;;;;;-1.22;100.00;99928.25;5026947;28;20033;-72
2021/01/13 00:34:46;;;;;;;10.20;3.47;;;;;;;-1.17;100.00;99926.63;5010091;28;20045;-72
2021/01/13 00:37:12;;;;;;;7.77;3.80;;;;;;;-1.16;100.00;99926.63;5010592;28;20060;-71
2021/01/13 00:39:38;;;;;;;8.53;3.30;;;;;;;-1.14;100.00;99930.13;5010712;28;20060;-71
2021/01/13 00:42:05;;;;;;;7.33;2.80;;;;;;;-1.16;100.00;99929.22;5011022;28;20056;-72
2021/01/13 00:44:31;;;;;;;7.43;3.30;;;;;;;-1.12;100.00;99937.91;5010344;28;20486;-72
2021/01/13 00:46:57;;;;;;;7.47;3.23;;;;;;;-1.09;100.00;99931.88;5011278;28;20037;-72
2021/01/13 00:49:24;;;;;;;7.13;3.20;;;;;;;-1.07;100.00;99940.59;5032452;28;20061;-72
2021/01/13 00:51:50;;;;;;;13.83;3.80;;;;;;;-1.06;100.00;99937.13;4999722;28;20065;-71
2021/01/13 00:54:16;;;;;;;8.07;3.70;;;;;;;-1.03;100.00;99926.78;5029171;28;20046;-72
2021/01/13 00:56:45;;;;;;;12.20;3.60;;;;;;;-0.97;100.00;99932.09;5024650;28;20240;-72
2021/01/13 00:59:11;;;;;;;10.47;3.63;;;;;;;-0.99;100.00;99937.25;5029883;28;20080;-72
2021/01/13 01:01:38;;;;;;;11.00;4.07;;;;;;;-0.94;100.00;99939.88;4993650;28;20091;-72
2021/01/13 01:04:05;;;;;;;8.57;3.50;;;;;;;-0.96;100.00;99931.22;4994488;28;20580;-73
2021/01/13 01:06:31;;;;;;;9.67;3.00;;;;;;;-0.93;100.00;99934.72;5009850;28;20057;-73
2021/01/13 01:08:58;;;;;;;8.53;3.80;;;;;;;-0.91;100.00;99933.03;5009768;28;20087;-72
2021/01/13 01:11:34;;;;;;;13.47;3.33;;;;;;;-0.89;100.00;99948.63;4992460;28;20033;-72
2021/01/13 01:14:02;;;;;;;10.07;3.33;;;;;;;-0.89;100.00;99943.44;5023868;28;20150;-72
2021/01/13 01:16:32;;;;;;;9.30;2.93;;;;;;;-0.90;100.00;99941.69;5025218;28;20037;-72
2021/01/13 01:18:59;;;;;;;8.33;3.00;;;;;;;-0.88;100.00;99934.81;5006566;28;20059;-72
2021/01/13 01:21:26;;;;;;;12.13;3.90;;;;;;;-0.84;100.00;99936.59;5014216;28;20065;-72
2021/01/13 01:23:53;;;;;;;9.83;3.03;;;;;;;-0.81;100.00;99941.81;5027329;28;20410;-72
2021/01/13 01:26:19;;;;;;;7.77;2.90;;;;;;;-0.85;100.00;99951.25;4990455;28;20053;-72
2021/01/13 01:28:45;;;;;;;8.77;2.83;;;;;;;-0.85;100.00;99958.16;5023938;28;20445;-73
2021/01/13 01:31:11;;;;;;;9.87;3.63;;;;;;;-0.79;100.00;99954.81;5009825;28;20061;-72
2021/01/13 01:33:38;;;;;;;6.50;3.13;;;;;;;-0.82;100.00;99972.91;5009950;28;20042;-73
2021/01/13 01:36:04;;;;;;;9.83;2.70;;;;;;;-0.85;100.00;99968.53;5009709;28;20057;-71
2021/01/13 01:38:30;;;;;;;10.93;3.53;;;;;;;-0.79;100.00;99970.38;4992308;28;20494;-72
2021/01/13 01:41:07;;;;;;;6.40;2.67;;;;;;;-0.80;100.00;99963.44;5009168;28;20120;-72
2021/01/13 01:43:33;;;;;;;8.67;2.60;;;;;;;-0.82;100.00;99971.19;5010210;28;20050;-72
2021/01/13 01:46:04;;;;;;;13.77;2.90;;;;;;;-0.81;100.00;99969.47;5011271;28;20645;-72
2021/01/13 01:48:46;;;;;;;8.03;2.43;;;;;;;-0.78;100.00;99970.38;5009083;28;20038;-73
2021/01/13 01:51:20;;;;;;;6.72;3.05;;;;;;;-0.77;100.00;99973.84;5005116;28;20133;-72
2021/01/13 01:53:59;;;;;;;12.33;3.73;;;;;;;-0.76;100.00;99978.16;5027372;28;20077;-72
2021/01/13 01:56:26;;;;;;;8.53;2.63;;;;;;;-0.74;100.00;99966.13;5026041;28;20065;-72
2021/01/13 01:59:11;;;;;;;12.67;2.97;;;;;;;-0.69;100.00;99967.91;5026816;28;20049;-72
2021/01/13 02:01:45;;;;;;;7.78;2.35;;;;;;;-0.65;100.00;99974.91;5010264;28;20040;-72
2021/01/13 02:04:23;;;;;;;5.72;2.67;;;;;;;-0.70;100.00;99970.50;5009782;28;20046;-72
2021/01/13 02:06:49;;;;;;;10.20;2.93;;;;;;;-0.72;100.00;99967.88;5008304;28;20056;-72
2021/01/13 02:09:15;;;;;;;7.60;2.47;;;;;;;-0.71;100.00;99968.75;5026672;28;20041;-72
2021/01/13 02:11:44;;;;;;;5.83;2.63;;;;;;;-0.71;100.00;99979.13;5031055;28;20111;-72
2021/01/13 02:14:12;;;;;;;7.67;2.73;;;;;;;-0.72;100.00;99978.25;4995004;28;20049;-72
2021/01/13 02:16:40;;;;;;;9.17;2.90;;;;;;;-0.68;100.00;99979.16;5013486;28;20454;-72
2021/01/13 02:19:10;;;;;;;7.03;2.50;;;;;;;-0.72;100.00;99973.06;5005691;28;20030;-72
2021/01/13 02:21:38;;;;;;;7.50;2.67;;;;;;;-0.74;100.00;99977.38;5008535;28;20029;-72
2021/01/13 02:24:07;;;;;;;8.30;2.40;;;;;;;-0.74;100.00;99973.91;4993661;28;20044;-72
2021/01/13 02:27:10;;;;;;;7.27;2.53;;;;;;;-0.69;100.00;99978.28;5026807;28;20062;-72
2021/01/13 02:29:39;;;;;;;8.27;2.40;;;;;;;-0.74;100.00;99977.38;5026418;28;20399;-72
2021/01/13 02:32:18;;;;;;;20.07;4.43;;;;;;;-0.76;100.00;99979.03;5009822;28;20073;-72
2021/01/13 02:35:03;;;;;;;11.20;2.57;;;;;;;-0.74;100.00;99979.97;5008533;28;20045;-72
2021/01/13 02:38:07;;;;;;;6.28;2.55;;;;;;;-0.76;100.00;99979.03;5020597;28;20050;-72
2021/01/13 02:40:34;;;;;;;8.40;2.80;;;;;;;-0.69;100.00;99980.88;4993015;28;20041;-72
2021/01/13 02:43:02;;;;;;;6.90;2.40;;;;;;;-0.72;100.00;99985.16;5009426;28;20084;-72
2021/01/13 02:45:42;;;;;;;9.17;3.03;;;;;;;-0.74;100.00;99979.09;5033888;28;20041;-72
2021/01/13 02:48:20;;;;;;;11.37;2.67;;;;;;;-0.74;100.00;99972.19;4991835;28;20033;-72
2021/01/13 02:51:00;;;;;;;5.13;2.40;;;;;;;-0.75;100.00;99980.81;5022621;28;20072;-72
2021/01/13 02:53:29;;;;;;;7.13;2.27;;;;;;;-0.69;100.00;99980.00;5009161;28;20041;-72
2021/01/13 02:55:55;;;;;;;7.07;2.67;;;;;;;-0.72;100.00;99980.84;5025001;28;20053;-72
2021/01/13 02:58:25;;;;;;;5.13;2.33;;;;;;;-0.65;100.00;99974.91;5035402;28;20037;-73
2021/01/13 03:00:52;;;;;;;7.50;2.53;;;;;;;-0.70;100.00;99973.09;5021610;28;20041;-72
2021/01/13 03:03:19;;;;;;;7.47;2.60;;;;;;;-0.69;100.00;99975.69;5007275;28;20041;-72
2021/01/13 03:05:46;;;;;;;8.90;3.13;;;;;;;-0.70;100.00;99975.66;5008386;28;20041;-73
2021/01/13 03:08:13;;;;;;;7.13;2.57;;;;;;;-0.72;100.00;99982.56;5006674;28;20083;-72
2021/01/13 03:10:47;;;;;;;10.97;3.27;;;;;;;-0.71;100.00;99979.13;5008860;28;20080;-73
2021/01/13 03:13:14;;;;;;;7.43;2.95;;;;;;;-0.68;100.00;99974.84;5023918;28;20044;-72
2021/01/13 03:15:40;;;;;;;10.90;2.93;;;;;;;-0.61;100.00;99974.06;4993168;28;20041;-73
2021/01/13 03:18:09;;;;;;;8.50;2.60;;;;;;;-0.67;100.00;99974.00;5007563;28;20602;-72
2021/01/13 03:20:48;;;;;;;6.00;2.70;;;;;;;-0.66;100.00;99973.16;5084516;22;20202;-78
2021/01/13 03:23:30;;;;;;;11.03;2.63;;;;;;;-0.67;100.00;99976.59;5001803;28;20037;-77
2021/01/13 03:26:03;;;;;;;5.63;3.10;;;;;;;-0.67;100.00;99970.56;5016510;28;20033;-75
2021/01/13 03:28:34;;;;;;;9.13;3.10;;;;;;;-0.55;100.00;99975.03;5015557;28;20605;-76
2021/01/13 03:31:01;;;;;;;7.13;2.87;;;;;;;-0.62;100.00;99961.97;5021055;28;20114;-75
2021/01/13 03:33:50;;;;;;;6.07;2.43;;;;;;;-0.65;100.00;99969.72;5018090;28;20123;-79
2021/01/13 03:36:27;;;;;;;9.17;3.97;;;;;;;-0.63;100.00;99972.31;5012746;28;20036;-74
2021/01/13 03:39:03;;;;;;;7.30;3.13;;;;;;;-0.63;100.00;99980.97;5016666;28;20065;-77
2021/01/13 03:41:48;;;;;;;4.43;2.30;;;;;;;-0.58;100.00;99963.75;5019551;28;20033;-78
2021/01/13 03:44:15;;;;;;;9.65;2.13;;;;;;;-0.60;100.00;99959.38;5019971;28;20095;-75
2021/01/13 03:46:41;;;;;;;5.63;2.30;;;;;;;-0.57;100.00;99968.09;5017319;28;20041;-76
2021/01/13 03:49:09;;;;;;;8.03;2.87;;;;;;;-0.50;100.00;99960.41;5006058;28;20382;-77
2021/01/13 03:51:54;;;;;;;4.47;2.10;;;;;;;-0.55;100.00;99955.13;5015315;28;20045;-79
2021/01/13 03:54:24;;;;;;;7.57;2.27;;;;;;;-0.58;100.00;99952.50;4999839;28;20482;-75
2021/01/13 03:57:03;;;;;;;16.07;2.67;;;;;;;-0.57;100.00;99962.91;5004104;28;20046;-75
2021/01/13 03:59:42;;;;;;;6.40;1.97;;;;;;;-0.53;100.00;99969.00;5028692;28;20036;-75
2021/01/13 04:02:09;;;;;;;5.10;2.10;;;;;;;-0.59;100.00;99976.69;5027647;28;20037;-75
2021/01/13 04:04:44;;;;;;;8.60;2.57;;;;;;;-0.59;100.00;99977.59;5010690;28;20041;-75
2021/01/13 04:07:12;;;;;;;6.13;2.10;;;;;;;-0.61;100.00;99979.25;5004007;28;20100;-77
2021/01/13 04:09:39;;;;;;;7.17;2.47;;;;;;;-0.57;100.00;99977.59;5036281;28;20559;-75
2021/01/13 04:12:14;;;;;;;6.53;2.07;;;;;;;-0.57;100.00;99973.28;5008871;28;20510;-75
2021/01/13 04:14:52;;;;;;;5.10;2.50;;;;;;;-0.49;100.00;99972.50;5018981;28;20468;-77
2021/01/13 04:17:18;;;;;;;5.40;2.27;;;;;;;-0.55;100.00;99970.69;5032846;28;20700;-75
2021/01/13 04:19:46;;;;;;;5.57;2.60;;;;;;;-0.57;100.00;99967.22;5013971;28;20069;-75
2021/01/13 04:22:13;;;;;;;4.53;2.00;;;;;;;-0.58;100.00;99970.66;5008946;28;20092;-77
2021/01/13 04:24:41;;;;;;;3.97;1.80;;;;;;;-0.59;100.00;99966.31;5029630;28;20078;-75
2021/01/13 04:27:09;;;;;;;4.50;2.23;;;;;;;-0.62;100.00;99971.47;5019735;28;20087;-75
2021/01/13 04:29:35;;;;;;;5.73;2.07;;;;;;;-0.65;100.00;99968.84;5028262;28;20092;-77
2021/01/13 04:32:02;;;;;;;6.90;2.47;;;;;;;-0.57;100.00;99957.72;5017450;28;20515;-76
2021/01/13 04:34:29;;;;;;;4.00;1.83;;;;;;;-0.60;100.00;99981.00;5004374;28;20549;-74
2021/01/13 04:36:56;;;;;;;4.00;1.83;;;;;;;-0.58;100.00;99983.66;5010941;28;20050;-75
2021/01/13 04:39:23;;;;;;;3.70;2.10;;;;;;;-0.54;100.00;99964.66;5021768;28;20045;-75
2021/01/13 04:42:02;;;;;;;4.63;1.80;;;;;;;-0.55;100.00;99969.84;5022446;28;20453;-75
2021/01/13 04:45:03;;;;;;;3.73;1.80;;;;;;;-0.54;100.00;99963.78;5035893;28;20038;-75
2021/01/13 04:47:50;;;;;;;3.80;1.57;;;;;;;-0.56;100.00;99976.75;5018207;28;20044;-77
2021/01/13 04:50:20;;;;;;;4.63;2.57;;;;;;;-0.49;100.00;99975.09;5006114;28;20542;-75
2021/01/13 04:52:48;;;;;;;6.70;2.10;;;;;;;-0.48;100.00;99971.66;5040953;28;20037;-75
2021/01/13 04:55:27;;;;;;;4.77;2.10;;;;;;;-0.51;100.00;99969.88;5040394;28;20091;-75
2021/01/13 04:58:14;;;;;;;6.77;2.50;;;;;;;-0.48;100.00;99977.72;5027025;28;20044;-76
2021/01/13 05:01:05;;;;;;;6.57;2.03;;;;;;;-0.47;100.00;99968.22;5035476;28;20074;-76
2021/01/13 05:03:42;;;;;;;5.13;2.17;;;;;;;-0.42;100.00;99971.72;5020137;28;20037;-75
2021/01/13 05:06:42;;;;;;;2.90;1.60;;;;;;;-0.43;100.00;99972.56;5015895;28;20062;-74
2021/01/13 05:09:10;;;;;;;14.70;3.60;;;;;;;-0.41;100.00;99970.88;5020624;28;20048;-74
2021/01/13 05:11:47;;;;;;;4.40;2.30;;;;;;;-0.41;100.00;99963.09;5017255;28;20041;-75
2021/01/13 05:14:14;;;;;;;3.93;1.70;;;;;;;-0.44;100.00;99966.50;5013807;28;20719;-76
2021/01/13 05:16:50;;;;;;;3.50;1.50;;;;;;;-0.41;100.00;99966.56;5013654;28;20100;-75
2021/01/13 05:19:30;;;;;;;8.97;2.43;;;;;;;-0.40;100.00;99959.66;5025843;28;20033;-75
2021/01/13 05:22:00;;;;;;;6.77;2.00;;;;;;;-0.37;100.00;99965.75;5016787;28;20045;-75
2021/01/13 05:24:31;;;;;;;6.07;1.90;;;;;;;-0.39;100.00;99970.03;5004458;28;20037;-75
2021/01/13 05:27:03;;;;;;;3.97;1.77;;;;;;;-0.37;100.00;99976.13;5025478;28;20080;-76
2021/01/13 05:29:36;;;;;;;5.00;2.00;;;;;;;-0.35;100.00;99976.13;5017791;28;20033;-75
2021/01/13 05:32:05;;;;;;;7.07;1.90;;;;;;;-0.38;100.00;99970.91;5020542;28;20095;-75
2021/01/13 05:34:34;;;;;;;6.60;2.10;;;;;;;-0.31;100.00;99975.34;5015722;28;20060;-75
2021/01/13 05:37:16;;;;;;;3.37;1.97;;;;;;;-0.36;100.00;99969.19;5016899;28;20041;-75
2021/01/13 05:39:47;;;;;;;5.50;2.07;;;;;;;-0.31;100.00;99981.41;5040112;28;20082;-76
2021/01/13 05:42:14;;;;;;;6.47;2.70;;;;;;;-0.36;100.00;99977.00;5023156;28;20060;-74
2021/01/13 05:44:42;;;;;;;6.17;2.40;;;;;;;-0.35;100.00;99981.31;5029106;28;20045;-75
2021/01/13 05:47:29;;;;;;;6.73;2.57;;;;;;;-0.31;100.00;99986.59;5014831;28;20041;-75
2021/01/13 05:49:58;;;;;;;7.47;2.17;;;;;;;-0.33;100.00;99979.66;5032971;28;20049;-75
2021/01/13 05:52:29;;;;;;;4.60;2.00;;;;;;;-0.32;100.00;99976.19;5003411;28;20453;-77
2021/01/13 05:54:55;;;;;;;11.57;2.77;;;;;;;-0.34;100.00;99980.47;5025182;28;20045;-75
2021/01/13 05:57:22;;;;;;;7.73;2.47;;;;;;;-0.28;100.00;99973.63;5030336;28;20036;-76
2021/01/13 05:59:51;;;;;;;5.53;3.10;;;;;;;-0.29;100.00;99978.81;5022555;28;20037;-74
2021/01/13 06:02:17;;;;;;;5.40;2.20;;;;;;;-0.32;100.00;99984.84;5027909;28;20036;-76
2021/01/13 06:04:47;;;;;;;6.43;2.67;;;;;;;-0.32;100.00;99990.03;5011221;28;20049;-76
2021/01/13 06:07:22;;;;;;;5.67;2.73;;;;;;;-0.31;100.00;99991.78;5028100;28;20029;-75
2021/01/13 06:09:54;;;;;;;4.77;2.03;;;;;;;-0.33;100.00;99995.22;5045419;28;20088;-76
2021/01/13 06:12:22;;;;;;;3.10;1.80;;;;;;;-0.36;100.00;100000.34;5027755;28;20044;-75
2021/01/13 06:14:49;;;;;;;3.73;2.60;;;;;;;-0.34;100.00;100006.41;5027841;28;20098;-76
2021/01/13 06:17:24;;;;;;;5.90;2.50;;;;;;;-0.30;100.00;100006.50;5026135;28;20420;-75
2021/01/13 06:19:51;;;;;;;;;;;;;;;-0.24;100.00;100008.31;5017433;28;20257;-76
2021/01/13 06:22:17;;;;;;;4.90;2.33;;;;;;;-0.25;100.00;100003.06;5013001;28;20298;-76
2021/01/13 06:24:46;;;;;;;6.17;3.03;;;;;;;-0.22;100.00;100006.59;5018272;28;20513;-74
2021/01/13 06:27:21;;;;;;;4.30;2.50;;;;;;;-0.28;100.00;99997.00;5017877;28;20029;-77
2021/01/13 06:30:00;;;;;;;5.23;2.83;;;;;;;-0.36;100.00;99998.63;5012333;28;20095;-75
2021/01/13 06:33:08;;;;;;;4.33;2.83;;;;;;;-0.39;100.00;99997.72;5000580;28;20045;-76
2021/01/13 06:35:43;;;;;;;5.80;3.53;;;;;;;-0.32;100.00;99999.56;5023624;28;20040;-75
2021/01/13 06:38:15;;;;;;;5.60;2.90;;;;;;;-0.36;100.00;99997.75;5029150;28;20392;-75
2021/01/13 06:40:41;;;;;;;8.07;3.50;;;;;;;-0.40;100.00;99993.38;5010756;28;20034;-76
2021/01/13 06:43:11;;;;;;;4.67;2.90;;;;;;;-0.42;100.00;99997.66;5026439;28;20041;-77
2021/01/13 06:45:38;;;;;;;9.13;3.43;;;;;;;-0.41;100.00;100000.31;5011494;28;20046;-75
2021/01/13 06:48:04;;;;;;;8.63;3.63;;;;;;;-0.46;100.00;99999.34;5020253;28;20571;-75
2021/01/13 06:50:32;;;;;;;7.47;3.87;;;;;;;-0.41;100.00;99997.72;5030491;28;20041;-75
2021/01/13 06:52:59;;;;;;;8.03;3.60;;;;;;;-0.40;100.00;100003.78;5018214;28;20038;-76
2021/01/13 06:55:33;;;;;;;9.40;3.33;;;;;;;-0.45;100.00;100005.41;5016149;28;20070;-75
2021/01/13 06:58:11;;;;;;;11.73;3.88;;;;;;;-0.46;100.00;100020.13;5019240;28;20074;-76
2021/01/13 07:00:38;;;;;;;9.70;4.40;;;;;;;-0.45;100.00;100013.19;5023935;28;20056;-76
2021/01/13 07:03:25;;;;;;;9.57;4.40;;;;;;;-0.44;100.00;100015.81;5018973;28;20045;-75
2021/01/13 07:05:53;;;;;;;8.37;4.40;;;;;;;-0.46;100.00;100008.88;5032232;28;20033;-74
2021/01/13 07:08:20;;;;;;;10.53;4.87;;;;;;;-0.41;100.00;100009.81;5037465;28;20544;-76
2021/01/13 07:10:47;;;;;;;8.90;4.10;;;;;;;-0.40;100.00;100020.22;5019410;28;20041;-75
2021/01/13 07:13:15;;;;;;;9.47;4.57;;;;;;;-0.44;100.00;100025.31;5019708;28;20037;-77
2021/01/13 07:15:42;;;;;;;8.53;4.33;;;;;;;-0.42;100.00;100028.81;5038363;28;20695;-76
2021/01/13 07:18:09;;;;;;;9.27;3.93;;;;;;;-0.41;100.00;100025.38;5024160;28;20124;-76
2021/01/13 07:20:40;;;;;;;11.93;4.13;;;;;;;-0.40;100.00;100016.75;5000009;28;20576;-77
2021/01/13 07:23:09;;;;;;;12.63;4.83;;;;;;;-0.38;100.00;100012.44;5012936;28;20430;-75
2021/01/13 07:25:43;;;;;;;11.77;5.83;;;;;;;-0.34;100.00;100027.19;5013897;28;20052;-77
2021/01/13 07:28:11;;;;;;;9.10;4.38;;;;;;;-0.38;100.00;100015.91;5013762;28;20049;-76
2021/01/13 07:30:37;;;;;;;12.27;4.30;;;;;;;-0.36;100.00;100002.94;5021280;28;20568;-74
2021/01/13 07:33:09;;;;;;;8.60;4.37;;;;;;;-0.32;100.00;100015.13;5001119;28;20034;-76
2021/01/13 07:35:48;;;;;;;11.87;5.03;;;;;;;-0.35;100.00;100008.16;5041455;28;20044;-75
2021/01/13 07:38:19;;;;;;;11.50;4.83;;;;;;;-0.37;100.00;100012.44;5032831;28;20095;-75
2021/01/13 07:41:03;;;;;;;14.87;4.57;;;;;;;-0.35;100.00;100017.66;5038335;28;20037;-75
2021/01/13 07:43:51;;;;;;;8.33;4.90;;;;;;;-0.28;100.00;100003.91;5025197;28;20142;-75
2021/01/13 07:46:28;;;;;;;7.17;3.90;;;;;;;-0.30;100.00;100000.44;5034914;28;20103;-75
2021/01/13 07:49:16;;;;;;;8.67;4.40;;;;;;;-0.22;100.00;100006.59;5020096;28;20033;-75
2021/01/13 07:51:57;;;;;;;11.17;4.37;;;;;;;-0.24;100.00;100005.72;5037202;28;20041;-76
2021/01/13 07:54:32;;;;;;;9.23;3.80;;;;;;;-0.23;100.00;100001.38;4990772;28;20049;-76
2021/01/13 07:57:03;;;;;;;10.47;4.43;;;;;;;-0.25;100.00;99993.59;5019461;28;20036;-76
2021/01/13 07:59:44;;;;;;;8.73;3.57;;;;;;;-0.20;100.00;99998.81;5018843;28;20048;-73
2021/01/13 08:02:45;;;;;;;9.10;4.57;;;;;;;-0.19;100.00;99997.97;5016471;28;20034;-72
2021/01/13 08:05:21;;;;;;;13.97;5.83;;;;;;;-0.19;100.00;100005.75;5021691;28;20567;-72
2021/01/13 08:08:21;;;;;;;13.27;4.43;;;;;;;-0.15;100.00;99997.16;5029556;28;20045;-73
2021/01/13 08:10:49;;;;;;;9.60;3.83;;;;;;;-0.11;100.00;99997.19;4992182;28;20053;-71
2021/01/13 08:13:59;;;;;;;8.70;4.30;;;;;;;-0.09;100.00;100002.41;5024841;28;20106;-73
2021/01/13 08:16:53;;;;;;;9.17;3.70;;;;;;;-0.03;100.00;99995.56;4930333;29;20110;-73
2021/01/13 08:19:44;;;;;;;5.33;3.27;;;;;;;0.01;100.00;99999.09;5038433;28;20037;-71
2021/01/13 08:22:14;;;;;;;10.03;4.13;;;;;;;0.06;100.00;100001.72;5018769;28;20073;-72
2021/01/13 08:24:43;;;;;;;7.53;3.60;;;;;;;0.10;100.00;99998.31;5023544;28;20041;-74
2021/01/13 08:27:10;;;;;;;7.37;3.53;;;;;;;0.10;100.00;99996.59;5010570;28;20291;-74
2021/01/13 08:29:39;;;;;;;7.77;3.63;;;;;;;0.12;100.00;99996.59;5006024;28;20053;-72
2021/01/13 08:32:08;;;;;;;5.60;3.30;;;;;;;0.18;100.00;100002.75;5026655;28;20038;-74
2021/01/13 08:34:44;;;;;;;8.37;4.27;;;;;;;0.24;100.00;99991.53;5041597;28;20037;-73
2021/01/13 08:37:11;;;;;;;8.43;3.20;;;;;;;0.23;100.00;99997.56;5038399;28;20460;-74
2021/01/13 08:39:38;;;;;;;4.37;2.93;;;;;;;0.24;100.00;99991.53;5024610;28;20063;-72
2021/01/13 08:42:21;;;;;;;8.77;3.43;;;;;;;0.24;100.00;99994.13;5022723;28;20498;-74
2021/01/13 08:44:48;;;;;;;7.40;2.37;;;;;;;0.29;100.00;99989.84;5025825;28;20033;-74
2021/01/13 08:47:16;;;;;;;11.97;4.47;;;;;;;0.32;100.00;99992.47;5009779;28;20110;-73
2021/01/13 08:49:45;;;;;;;7.13;2.97;;;;;;;0.27;100.00;99994.19;5040400;28;20029;-73
2021/01/13 08:52:18;;;;;;;5.67;3.33;;;;;;;0.30;100.00;100001.13;5009096;28;20044;-72
2021/01/13 08:55:14;;;;;;;8.13;3.17;;;;;;;0.29;100.00;100000.25;5040852;28;20615;-73
2021/01/13 08:58:04;;;;;;;5.20;3.33;;;;;;;0.28;100.00;100014.97;5021271;28;20034;-72
2021/01/13 09:00:31;;;;;;;10.27;4.93;;;;;;;0.34;100.00;99998.59;5009487;28;20041;-74
2021/01/13 09:03:07;;;;;;;7.60;4.40;;;;;;;0.37;100.00;100001.19;5022004;28;20096;-72
2021/01/13 09:05:35;;;;;;;6.67;2.47;;;;;;;0.37;100.00;100003.78;5024747;28;20090;-71
2021/01/13 09:08:04;;;;;;;6.63;2.60;;;;;;;0.41;100.00;100002.09;5018889;28;20037;-72
2021/01/13 09:10:53;;;;;;;6.93;3.33;;;;;;;0.45;100.00;99996.09;5006914;28;20041;-73
2021/01/13 09:13:34;;;;;;;5.43;3.13;;;;;;;0.46;100.00;99998.69;5008264;28;20524;-72
2021/01/13 09:16:22;;;;;;;8.67;3.03;;;;;;;0.45;100.00;99994.34;5036891;28;20048;-74
2021/01/13 09:18:59;;;;;;;6.40;3.03;;;;;;;0.45;100.00;99996.94;5035105;28;20760;-73
2021/01/13 09:21:39;;;;;;;6.60;2.90;;;;;;;0.52;100.00;100000.47;5021294;28;20045;-72
2021/01/13 09:24:08;;;;;;;8.57;2.70;;;;;;;0.51;100.00;99997.00;5032974;28;20584;-72
2021/01/13 09:26:38;;;;;;;6.30;2.97;;;;;;;0.55;100.00;100008.28;5015825;28;20115;-74
2021/01/13 09:29:11;;;;;;;6.30;2.60;;;;;;;0.56;100.00;99997.91;5022863;28;20489;-74
2021/01/13 09:31:39;;;;;;;4.57;3.37;;;;;;;0.52;100.00;100001.34;5014177;28;20044;-74
2021/01/13 09:34:07;;;;;;;8.37;3.37;;;;;;;0.53;100.00;100004.81;5010885;28;20040;-76
2021/01/13 09:37:06;;;;;;;7.17;3.20;;;;;;;0.53;100.00;99991.81;5040123;28;20405;-77
2021/01/13 09:39:35;;;;;;;6.27;2.80;;;;;;;0.53;100.00;100002.22;4971497;28;20045;-77
2021/01/13 09:42:03;;;;;;;7.97;3.23;;;;;;;0.49;100.00;99995.22;5044594;28;20052;-75
2021/01/13 09:44:30;;;;;;;9.60;3.53;;;;;;;0.51;100.00;100001.34;5019662;28;20513;-75
2021/01/13 09:46:57;;;;;;;11.80;4.47;;;;;;;0.50;100.00;99999.56;5034482;28;20063;-75
2021/01/13 09:49:24;;;;;;;5.87;3.27;;;;;;;0.51;100.00;99984.03;5006055;28;20120;-76
2021/01/13 09:51:51;;;;;;;7.00;3.40;;;;;;;0.55;100.00;99980.56;5017512;28;20041;-76
2021/01/13 09:54:22;;;;;;;9.97;4.63;;;;;;;0.64;100.00;99977.19;5017274;28;20053;-75
2021/01/13 09:56:56;;;;;;;6.75;3.38;;;;;;;0.65;100.00;99981.53;5038727;28;20084;-75
2021/01/13 09:59:24;;;;;;;8.13;3.90;;;;;;;0.70;100.00;99978.97;5005521;28;20057;-75
2021/01/13 10:01:54;;;;;;;10.07;4.40;;;;;;;0.74;100.00;99973.78;5023464;28;20143;-76
2021/01/13 10:04:23;;;;;;;4.77;3.10;;;;;;;0.75;100.00;99974.66;5023620;28;20037;-75
2021/01/13 10:06:53;;;;;;;9.33;3.63;;;;;;;0.74;100.00;99968.59;5008491;28;20068;-74
2021/01/13 10:09:19;;;;;;;5.80;3.60;;;;;;;0.78;100.00;99970.38;5021187;28;20398;-74
2021/01/13 10:11:52;;;;;;;11.43;6.47;;;;;;;0.79;100.00;99961.72;5012878;28;20056;-75
2021/01/13 10:14:20;;;;;;;6.50;3.33;;;;;;;0.86;100.00;99965.25;5022471;28;20063;-76
2021/01/13 10:16:47;;;;;;;6.57;2.90;;;;;;;0.90;100.00;99956.59;5027014;28;20041;-75
2021/01/13 10:19:14;;;;;;;4.97;3.50;;;;;;;0.95;100.00;99948.84;5018536;28;20056;-75
2021/01/13 10:21:48;;;;;;;6.60;2.97;;;;;;;1.00;100.00;99944.50;5036964;28;20392;-75
2021/01/13 10:24:18;;;;;;;5.73;2.87;;;;;;;1.03;100.00;99942.81;5004876;28;20029;-75
2021/01/13 10:26:49;;;;;;;6.80;2.93;;;;;;;1.01;100.00;99948.84;5035892;28;20076;-76
2021/01/13 10:29:21;;;;;;;6.57;3.23;;;;;;;0.94;100.00;99945.38;5015546;28;20042;-75
2021/01/13 10:31:48;;;;;;;6.23;2.87;;;;;;;0.92;100.00;99941.84;5017094;28;20063;-75
2021/01/13 10:34:15;;;;;;;7.40;2.97;;;;;;;0.93;100.00;99940.16;5004208;28;20689;-74
2021/01/13 10:39:16;;;;;;;6.20;3.25;;;;;;;0.98;100.00;99931.50;5055232;28;20046;-73
2021/01/13 10:42:05;;;;;;;14.17;3.70;;;;;;;0.96;100.00;99940.16;5026319;28;20589;-73
2021/01/13 10:44:32;;;;;;;5.03;2.60;;;;;;;1.00;100.00;99932.38;5044603;28;20048;-71
2021/01/13 10:46:59;;;;;;;5.73;2.93;;;;;;;1.00;100.00;99924.56;5041460;28;20059;-73
2021/01/13 10:49:32;;;;;;;12.67;6.50;;;;;;;1.05;100.00;99933.28;5039199;28;20452;-71
2021/01/13 10:52:03;;;;;;;10.80;4.32;;;;;;;1.05;100.00;99915.09;5058656;28;20036;-72
2021/01/13 10:54:31;;;;;;;6.40;4.83;;;;;;;1.01;100.00;99923.75;5038847;28;20934;-72
2021/01/13 10:57:06;;;;;;;8.60;3.63;;;;;;;1.01;100.00;99918.53;5037824;28;20048;-73
2021/01/13 10:59:33;;;;;;;7.55;3.15;;;;;;;1.03;100.00;99908.13;5042015;28;20055;-72
2021/01/13 11:02:15;;;;;;;9.70;2.87;;;;;;;0.99;100.00;99909.84;5004445;28;20048;-73
2021/01/13 11:04:45;;;;;;;5.10;2.00;;;;;;;1.03;100.00;99902.94;5063514;28;20537;-71
2021/01/13 11:07:19;;;;;;;4.93;2.67;;;;;;;1.08;100.00;99896.00;5012492;28;20045;-71
2021/01/13 11:09:49;;;;;;;4.95;2.17;;;;;;;1.09;100.00;99897.75;5029981;28;20136;-73
2021/01/13 11:12:23;;;;;;;6.03;2.57;;;;;;;1.13;100.00;99897.78;5025433;28;20098;-72
2021/01/13 11:14:52;;;;;;;5.43;2.60;;;;;;;1.16;100.00;99890.84;5041153;28;20135;-73
2021/01/13 11:17:23;;;;;;;3.50;2.20;;;;;;;1.13;100.00;99882.19;5029465;28;20036;-72
2021/01/13 11:19:53;;;;;;;4.83;2.40;;;;;;;1.21;100.00;99873.53;5044488;28;20082;-71
2021/01/13 11:22:21;;;;;;;6.03;2.53;;;;;;;1.23;100.00;99872.69;5042555;28;20448;-72
2021/01/13 11:24:49;;;;;;;7.43;2.70;;;;;;;1.24;100.00;99858.81;5040894;28;20044;-71
2021/01/13 11:27:22;;;;;;;8.23;3.20;;;;;;;1.23;100.00;99859.66;5052671;28;20036;-71
2021/01/13 11:29:55;;;;;;;4.82;2.35;;;;;;;1.29;100.00;99858.84;5034582;28;20733;-71
2021/01/13 11:32:26;;;;;;;6.80;2.83;;;;;;;1.28;100.00;99867.50;5055334;28;20094;-71
2021/01/13 11:34:53;;;;;;;4.23;2.33;;;;;;;1.29;100.00;99861.44;5044409;28;20521;-72
2021/01/13 11:37:31;;;;;;;5.87;2.20;;;;;;;1.21;100.00;99852.72;5038612;28;20547;-73
2021/01/13 11:40:07;;;;;;;5.90;2.07;;;;;;;1.21;100.00;99853.59;5053891;28;20040;-72
2021/01/13 11:42:55;;;;;;;4.00;2.10;;;;;;;1.32;100.00;99851.03;5041843;28;20041;-72
2021/01/13 11:45:27;;;;;;;6.87;2.23;;;;;;;1.33;100.00;99837.16;5044159;28;20465;-72
2021/01/13 11:47:54;;;;;;;5.80;2.70;;;;;;;1.36;100.00;99830.25;5062361;28;20139;-72
2021/01/13 11:50:23;;;;;;;5.63;2.33;;;;;;;1.41;100.00;99832.84;5065354;28;20071;-72